sensor_id;sensor_type;location;lat;lon;timestamp;P1;durP1;ratioP1;P2;durP2;ratioP2
77726;SDS011;68312;53.502;10.030;2023-09-08T00:02:10;8.20;;;5.40;;
77726;SDS011;68312;53.502;10.030;2023-09-08T00:04:36;10.25;;;6.28;;
77726;SDS011;68312;53.502;10.030;2023-09-08T00:07:01;9.05;;;5.95;;
77726;SDS011;68312;53.502;10.030;2023-09-08T00:09:27;11.05;;;6.85;;
77726;SDS011;68312;53.502;10.030;2023-09-08T00:11:52;8.02;;;5.15;;
77726;SDS011;68312;53.502;10.030;2023-09-08T00:14:19;7.43;;;5.25;;
77726;SDS011;68312;53.502;10.030;2023-09-08T00:16:45;6.97;;;5.35;;
77726;SDS011;68312;53.502;10.030;2023-09-08T00:19:10;7.03;;;5.28;;
77726;SDS011;68312;53.502;10.030;2023-09-08T00:21:36;7.72;;;5.80;;
77726;SDS011;68312;53.502;10.030;2023-09-08T00:24:02;8.45;;;5.38;;
77726;SDS011;68312;53.502;10.030;2023-09-08T00:26:29;10.82;;;6.20;;
77726;SDS011;68312;53.502;10.030;2023-09-08T00:28:55;9.35;;;5.82;;
77726;SDS011;68312;53.502;10.030;2023-09-08T00:31:21;7.32;;;5.20;;
77726;SDS011;68312;53.502;10.030;2023-09-08T00:33:46;10.23;;;5.72;;
77726;SDS011;68312;53.502;10.030;2023-09-08T00:36:12;7.60;;;5.97;;
77726;SDS011;68312;53.502;10.030;2023-09-08T00:38:37;8.77;;;6.32;;
77726;SDS011;68312;53.502;10.030;2023-09-08T00:41:04;8.35;;;6.00;;
77726;SDS011;68312;53.502;10.030;2023-09-08T00:43:30;8.50;;;5.75;;
77726;SDS011;68312;53.502;10.030;2023-09-08T00:45:56;10.85;;;6.65;;
77726;SDS011;68312;53.502;10.030;2023-09-08T00:48:23;9.27;;;5.70;;
77726;SDS011;68312;53.502;10.030;2023-09-08T00:50:50;9.18;;;5.75;;
77726;SDS011;68312;53.502;10.030;2023-09-08T00:53:15;11.02;;;5.93;;
77726;SDS011;68312;53.502;10.030;2023-09-08T00:55:42;9.82;;;6.22;;
77726;SDS011;68312;53.502;10.030;2023-09-08T00:58:07;9.00;;;5.53;;
77726;SDS011;68312;53.502;10.030;2023-09-08T01:00:33;9.18;;;6.25;;
77726;SDS011;68312;53.502;10.030;2023-09-08T01:02:59;9.07;;;6.38;;
77726;SDS011;68312;53.502;10.030;2023-09-08T01:05:25;8.32;;;6.07;;
77726;SDS011;68312;53.502;10.030;2023-09-08T01:07:50;12.18;;;6.38;;
77726;SDS011;68312;53.502;10.030;2023-09-08T01:10:17;9.48;;;6.30;;
77726;SDS011;68312;53.502;10.030;2023-09-08T01:12:43;8.35;;;6.18;;
77726;SDS011;68312;53.502;10.030;2023-09-08T01:15:08;10.25;;;6.95;;
77726;SDS011;68312;53.502;10.030;2023-09-08T01:17:34;7.88;;;5.82;;
77726;SDS011;68312;53.502;10.030;2023-09-08T01:20:22;12.23;;;7.00;;
77726;SDS011;68312;53.502;10.030;2023-09-08T01:23:25;10.98;;;6.85;;
77726;SDS011;68312;53.502;10.030;2023-09-08T01:26:17;9.35;;;5.85;;
77726;SDS011;68312;53.502;10.030;2023-09-08T01:28:50;8.55;;;6.50;;
77726;SDS011;68312;53.502;10.030;2023-09-08T01:31:18;9.43;;;6.25;;
77726;SDS011;68312;53.502;10.030;2023-09-08T01:33:44;9.65;;;6.70;;
77726;SDS011;68312;53.502;10.030;2023-09-08T01:36:10;13.10;;;6.50;;
77726;SDS011;68312;53.502;10.030;2023-09-08T01:38:36;11.02;;;6.13;;
77726;SDS011;68312;53.502;10.030;2023-09-08T01:41:02;9.57;;;6.53;;
77726;SDS011;68312;53.502;10.030;2023-09-08T01:43:27;9.88;;;6.55;;
77726;SDS011;68312;53.502;10.030;2023-09-08T01:45:53;10.95;;;6.93;;
77726;SDS011;68312;53.502;10.030;2023-09-08T01:48:18;11.02;;;7.53;;
77726;SDS011;68312;53.502;10.030;2023-09-08T01:50:44;10.02;;;6.93;;
77726;SDS011;68312;53.502;10.030;2023-09-08T01:53:10;11.02;;;6.82;;
77726;SDS011;68312;53.502;10.030;2023-09-08T01:55:35;9.57;;;6.10;;
77726;SDS011;68312;53.502;10.030;2023-09-08T01:58:00;13.13;;;6.97;;
77726;SDS011;68312;53.502;10.030;2023-09-08T02:00:26;9.60;;;6.50;;
77726;SDS011;68312;53.502;10.030;2023-09-08T02:02:51;10.13;;;5.93;;
77726;SDS011;68312;53.502;10.030;2023-09-08T02:05:16;11.45;;;6.70;;
77726;SDS011;68312;53.502;10.030;2023-09-08T02:07:42;9.13;;;6.47;;
77726;SDS011;68312;53.502;10.030;2023-09-08T02:10:07;9.50;;;6.53;;
77726;SDS011;68312;53.502;10.030;2023-09-08T02:12:35;8.90;;;7.07;;
77726;SDS011;68312;53.502;10.030;2023-09-08T02:15:00;8.57;;;6.03;;
77726;SDS011;68312;53.502;10.030;2023-09-08T02:17:25;9.13;;;6.47;;
77726;SDS011;68312;53.502;10.030;2023-09-08T02:19:51;7.88;;;5.47;;
77726;SDS011;68312;53.502;10.030;2023-09-08T02:22:17;9.48;;;6.28;;
77726;SDS011;68312;53.502;10.030;2023-09-08T02:24:43;8.75;;;6.22;;
77726;SDS011;68312;53.502;10.030;2023-09-08T02:27:08;12.00;;;6.30;;
77726;SDS011;68312;53.502;10.030;2023-09-08T02:29:34;8.65;;;6.00;;
77726;SDS011;68312;53.502;10.030;2023-09-08T02:32:00;7.70;;;5.75;;
77726;SDS011;68312;53.502;10.030;2023-09-08T02:34:25;9.07;;;6.25;;
77726;SDS011;68312;53.502;10.030;2023-09-08T02:36:51;8.05;;;5.40;;
77726;SDS011;68312;53.502;10.030;2023-09-08T02:39:16;10.60;;;6.68;;
77726;SDS011;68312;53.502;10.030;2023-09-08T02:41:42;8.32;;;5.53;;
77726;SDS011;68312;53.502;10.030;2023-09-08T02:44:07;8.65;;;6.35;;
77726;SDS011;68312;53.502;10.030;2023-09-08T02:46:32;9.20;;;6.22;;
77726;SDS011;68312;53.502;10.030;2023-09-08T02:48:58;8.45;;;6.03;;
77726;SDS011;68312;53.502;10.030;2023-09-08T02:51:23;9.65;;;5.97;;
77726;SDS011;68312;53.502;10.030;2023-09-08T02:53:49;11.25;;;6.35;;
77726;SDS011;68312;53.502;10.030;2023-09-08T02:56:14;8.63;;;5.93;;
77726;SDS011;68312;53.502;10.030;2023-09-08T02:58:39;8.60;;;6.10;;
77726;SDS011;68312;53.502;10.030;2023-09-08T03:01:15;10.18;;;6.60;;
77726;SDS011;68312;53.502;10.030;2023-09-08T03:03:45;11.68;;;6.80;;
77726;SDS011;68312;53.502;10.030;2023-09-08T03:06:13;9.43;;;6.45;;
77726;SDS011;68312;53.502;10.030;2023-09-08T03:08:40;8.50;;;6.18;;
77726;SDS011;68312;53.502;10.030;2023-09-08T03:11:07;9.35;;;6.70;;
77726;SDS011;68312;53.502;10.030;2023-09-08T03:13:34;8.80;;;6.32;;
77726;SDS011;68312;53.502;10.030;2023-09-08T03:16:03;11.20;;;6.90;;
77726;SDS011;68312;53.502;10.030;2023-09-08T03:18:34;11.48;;;6.40;;
77726;SDS011;68312;53.502;10.030;2023-09-08T03:21:01;9.43;;;6.22;;
77726;SDS011;68312;53.502;10.030;2023-09-08T03:23:43;9.95;;;6.80;;
77726;SDS011;68312;53.502;10.030;2023-09-08T03:26:09;7.85;;;5.90;;
77726;SDS011;68312;53.502;10.030;2023-09-08T03:28:35;9.38;;;5.90;;
77726;SDS011;68312;53.502;10.030;2023-09-08T03:31:04;9.18;;;6.15;;
77726;SDS011;68312;53.502;10.030;2023-09-08T03:33:30;12.10;;;6.43;;
77726;SDS011;68312;53.502;10.030;2023-09-08T03:35:56;10.82;;;6.57;;
77726;SDS011;68312;53.502;10.030;2023-09-08T03:38:21;9.00;;;6.72;;
77726;SDS011;68312;53.502;10.030;2023-09-08T03:40:48;11.15;;;7.05;;
77726;SDS011;68312;53.502;10.030;2023-09-08T03:43:13;10.25;;;7.18;;
77726;SDS011;68312;53.502;10.030;2023-09-08T03:45:39;8.50;;;6.30;;
77726;SDS011;68312;53.502;10.030;2023-09-08T03:48:04;10.57;;;6.93;;
77726;SDS011;68312;53.502;10.030;2023-09-08T03:50:30;10.25;;;7.22;;
77726;SDS011;68312;53.502;10.030;2023-09-08T03:52:56;10.05;;;7.15;;
77726;SDS011;68312;53.502;10.030;2023-09-08T03:55:21;9.85;;;6.97;;
77726;SDS011;68312;53.502;10.030;2023-09-08T03:57:47;12.13;;;7.95;;
77726;SDS011;68312;53.502;10.030;2023-09-08T04:00:13;10.80;;;7.70;;
77726;SDS011;68312;53.502;10.030;2023-09-08T04:02:44;8.80;;;6.68;;
77726;SDS011;68312;53.502;10.030;2023-09-08T04:05:10;9.57;;;6.50;;
77726;SDS011;68312;53.502;10.030;2023-09-08T04:07:35;11.38;;;7.30;;
77726;SDS011;68312;53.502;10.030;2023-09-08T04:10:01;9.15;;;6.32;;
77726;SDS011;68312;53.502;10.030;2023-09-08T04:12:28;8.27;;;5.85;;
77726;SDS011;68312;53.502;10.030;2023-09-08T04:14:53;10.05;;;6.43;;
77726;SDS011;68312;53.502;10.030;2023-09-08T04:17:19;11.75;;;7.18;;
77726;SDS011;68312;53.502;10.030;2023-09-08T04:19:44;10.32;;;6.93;;
77726;SDS011;68312;53.502;10.030;2023-09-08T04:22:09;9.90;;;7.50;;
77726;SDS011;68312;53.502;10.030;2023-09-08T04:24:35;9.82;;;6.88;;
77726;SDS011;68312;53.502;10.030;2023-09-08T04:27:02;8.82;;;7.15;;
77726;SDS011;68312;53.502;10.030;2023-09-08T04:29:28;9.35;;;6.47;;
77726;SDS011;68312;53.502;10.030;2023-09-08T04:31:54;10.02;;;7.07;;
77726;SDS011;68312;53.502;10.030;2023-09-08T04:34:19;11.15;;;6.72;;
77726;SDS011;68312;53.502;10.030;2023-09-08T04:36:44;12.55;;;6.88;;
77726;SDS011;68312;53.502;10.030;2023-09-08T04:39:11;10.70;;;6.50;;
77726;SDS011;68312;53.502;10.030;2023-09-08T04:41:37;8.77;;;6.45;;
77726;SDS011;68312;53.502;10.030;2023-09-08T04:44:03;10.40;;;6.72;;
77726;SDS011;68312;53.502;10.030;2023-09-08T04:46:29;8.93;;;6.80;;
77726;SDS011;68312;53.502;10.030;2023-09-08T04:48:54;10.52;;;6.53;;
77726;SDS011;68312;53.502;10.030;2023-09-08T04:51:20;8.32;;;6.28;;
77726;SDS011;68312;53.502;10.030;2023-09-08T04:53:45;12.23;;;7.30;;
77726;SDS011;68312;53.502;10.030;2023-09-08T04:56:11;10.68;;;6.72;;
77726;SDS011;68312;53.502;10.030;2023-09-08T04:58:38;14.18;;;7.55;;
77726;SDS011;68312;53.502;10.030;2023-09-08T05:01:04;10.32;;;7.43;;
77726;SDS011;68312;53.502;10.030;2023-09-08T05:03:30;11.00;;;7.10;;
77726;SDS011;68312;53.502;10.030;2023-09-08T05:05:56;12.30;;;7.43;;
77726;SDS011;68312;53.502;10.030;2023-09-08T05:08:22;10.50;;;7.55;;
77726;SDS011;68312;53.502;10.030;2023-09-08T05:10:47;12.68;;;8.02;;
77726;SDS011;68312;53.502;10.030;2023-09-08T05:13:13;11.80;;;7.85;;
77726;SDS011;68312;53.502;10.030;2023-09-08T05:15:38;12.40;;;7.72;;
77726;SDS011;68312;53.502;10.030;2023-09-08T05:18:07;11.05;;;8.55;;
77726;SDS011;68312;53.502;10.030;2023-09-08T05:20:32;13.15;;;8.57;;
77726;SDS011;68312;53.502;10.030;2023-09-08T05:22:58;13.25;;;8.90;;
77726;SDS011;68312;53.502;10.030;2023-09-08T05:25:23;12.00;;;7.97;;
77726;SDS011;68312;53.502;10.030;2023-09-08T05:27:48;12.40;;;7.60;;
77726;SDS011;68312;53.502;10.030;2023-09-08T05:30:14;11.70;;;7.43;;
77726;SDS011;68312;53.502;10.030;2023-09-08T05:32:39;11.80;;;8.02;;
77726;SDS011;68312;53.502;10.030;2023-09-08T05:35:05;13.15;;;8.85;;
77726;SDS011;68312;53.502;10.030;2023-09-08T05:37:31;13.88;;;8.10;;
77726;SDS011;68312;53.502;10.030;2023-09-08T05:39:56;12.18;;;7.93;;
77726;SDS011;68312;53.502;10.030;2023-09-08T05:42:21;14.27;;;8.82;;
77726;SDS011;68312;53.502;10.030;2023-09-08T05:44:47;13.63;;;8.45;;
77726;SDS011;68312;53.502;10.030;2023-09-08T05:47:13;12.43;;;8.30;;
77726;SDS011;68312;53.502;10.030;2023-09-08T05:49:38;13.75;;;8.77;;
77726;SDS011;68312;53.502;10.030;2023-09-08T05:52:03;17.00;;;8.32;;
77726;SDS011;68312;53.502;10.030;2023-09-08T05:54:29;19.83;;;9.88;;
77726;SDS011;68312;53.502;10.030;2023-09-08T05:56:55;14.70;;;9.30;;
77726;SDS011;68312;53.502;10.030;2023-09-08T05:59:20;16.98;;;9.23;;
77726;SDS011;68312;53.502;10.030;2023-09-08T06:01:46;14.65;;;9.02;;
77726;SDS011;68312;53.502;10.030;2023-09-08T06:04:11;12.57;;;8.88;;
77726;SDS011;68312;53.502;10.030;2023-09-08T06:06:37;15.25;;;9.77;;
77726;SDS011;68312;53.502;10.030;2023-09-08T06:09:02;13.27;;;8.98;;
77726;SDS011;68312;53.502;10.030;2023-09-08T06:11:28;11.65;;;8.90;;
77726;SDS011;68312;53.502;10.030;2023-09-08T06:13:53;13.98;;;9.45;;
77726;SDS011;68312;53.502;10.030;2023-09-08T06:16:23;14.55;;;9.38;;
77726;SDS011;68312;53.502;10.030;2023-09-08T06:18:49;13.45;;;9.18;;
77726;SDS011;68312;53.502;10.030;2023-09-08T06:21:14;14.70;;;8.43;;
77726;SDS011;68312;53.502;10.030;2023-09-08T06:23:40;12.02;;;8.52;;
77726;SDS011;68312;53.502;10.030;2023-09-08T06:26:05;12.90;;;8.05;;
77726;SDS011;68312;53.502;10.030;2023-09-08T06:28:30;11.73;;;8.10;;
77726;SDS011;68312;53.502;10.030;2023-09-08T06:30:56;10.95;;;8.05;;
77726;SDS011;68312;53.502;10.030;2023-09-08T06:33:21;13.27;;;8.30;;
77726;SDS011;68312;53.502;10.030;2023-09-08T06:35:47;12.75;;;8.40;;
77726;SDS011;68312;53.502;10.030;2023-09-08T06:38:13;12.60;;;8.10;;
77726;SDS011;68312;53.502;10.030;2023-09-08T06:40:38;10.55;;;7.68;;
77726;SDS011;68312;53.502;10.030;2023-09-08T06:43:04;12.10;;;8.15;;
77726;SDS011;68312;53.502;10.030;2023-09-08T06:45:30;13.48;;;8.52;;
77726;SDS011;68312;53.502;10.030;2023-09-08T06:47:55;11.20;;;7.88;;
77726;SDS011;68312;53.502;10.030;2023-09-08T06:50:21;11.77;;;8.27;;
77726;SDS011;68312;53.502;10.030;2023-09-08T06:52:48;12.93;;;7.88;;
77726;SDS011;68312;53.502;10.030;2023-09-08T06:55:17;11.07;;;8.00;;
77726;SDS011;68312;53.502;10.030;2023-09-08T06:57:43;10.88;;;7.53;;
77726;SDS011;68312;53.502;10.030;2023-09-08T07:00:09;11.57;;;7.97;;
77726;SDS011;68312;53.502;10.030;2023-09-08T07:02:36;10.25;;;7.75;;
77726;SDS011;68312;53.502;10.030;2023-09-08T07:05:02;9.13;;;6.90;;
77726;SDS011;68312;53.502;10.030;2023-09-08T07:07:33;12.70;;;7.90;;
77726;SDS011;68312;53.502;10.030;2023-09-08T07:10:02;11.63;;;7.55;;
77726;SDS011;68312;53.502;10.030;2023-09-08T07:12:29;11.27;;;7.72;;
77726;SDS011;68312;53.502;10.030;2023-09-08T07:14:55;12.82;;;7.97;;
77726;SDS011;68312;53.502;10.030;2023-09-08T07:17:21;10.73;;;7.72;;
77726;SDS011;68312;53.502;10.030;2023-09-08T07:19:48;10.38;;;7.85;;
77726;SDS011;68312;53.502;10.030;2023-09-08T07:22:14;9.70;;;7.90;;
77726;SDS011;68312;53.502;10.030;2023-09-08T07:24:39;11.13;;;8.23;;
77726;SDS011;68312;53.502;10.030;2023-09-08T07:27:05;13.15;;;8.35;;
77726;SDS011;68312;53.502;10.030;2023-09-08T07:29:30;12.18;;;8.00;;
77726;SDS011;68312;53.502;10.030;2023-09-08T07:31:56;10.60;;;7.10;;
77726;SDS011;68312;53.502;10.030;2023-09-08T07:34:22;9.70;;;8.07;;
77726;SDS011;68312;53.502;10.030;2023-09-08T07:36:47;10.85;;;7.78;;
77726;SDS011;68312;53.502;10.030;2023-09-08T07:39:13;9.95;;;7.07;;
77726;SDS011;68312;53.502;10.030;2023-09-08T07:41:38;15.77;;;6.93;;
77726;SDS011;68312;53.502;10.030;2023-09-08T07:44:05;9.65;;;7.03;;
77726;SDS011;68312;53.502;10.030;2023-09-08T07:46:31;12.25;;;7.50;;
77726;SDS011;68312;53.502;10.030;2023-09-08T07:48:58;10.40;;;7.32;;
77726;SDS011;68312;53.502;10.030;2023-09-08T07:51:25;9.23;;;6.32;;
77726;SDS011;68312;53.502;10.030;2023-09-08T07:53:52;9.65;;;6.63;;
77726;SDS011;68312;53.502;10.030;2023-09-08T07:56:18;10.45;;;6.80;;
77726;SDS011;68312;53.502;10.030;2023-09-08T07:58:44;9.73;;;6.45;;
77726;SDS011;68312;53.502;10.030;2023-09-08T08:01:09;10.10;;;6.97;;
77726;SDS011;68312;53.502;10.030;2023-09-08T08:03:34;9.38;;;6.70;;
77726;SDS011;68312;53.502;10.030;2023-09-08T08:06:01;9.00;;;6.63;;
77726;SDS011;68312;53.502;10.030;2023-09-08T08:08:26;9.48;;;6.57;;
77726;SDS011;68312;53.502;10.030;2023-09-08T08:10:52;10.82;;;6.70;;
77726;SDS011;68312;53.502;10.030;2023-09-08T08:13:17;11.63;;;7.35;;
77726;SDS011;68312;53.502;10.030;2023-09-08T08:15:43;9.02;;;6.70;;
77726;SDS011;68312;53.502;10.030;2023-09-08T08:18:12;8.52;;;6.38;;
77726;SDS011;68312;53.502;10.030;2023-09-08T08:20:38;9.02;;;6.40;;
77726;SDS011;68312;53.502;10.030;2023-09-08T08:23:06;12.40;;;6.80;;
77726;SDS011;68312;53.502;10.030;2023-09-08T08:25:32;10.05;;;6.80;;
77726;SDS011;68312;53.502;10.030;2023-09-08T08:27:58;8.80;;;6.18;;
77726;SDS011;68312;53.502;10.030;2023-09-08T08:30:27;9.70;;;6.38;;
77726;SDS011;68312;53.502;10.030;2023-09-08T08:32:53;9.65;;;6.72;;
77726;SDS011;68312;53.502;10.030;2023-09-08T08:35:19;8.75;;;6.47;;
77726;SDS011;68312;53.502;10.030;2023-09-08T08:37:45;11.35;;;6.78;;
77726;SDS011;68312;53.502;10.030;2023-09-08T08:40:11;10.00;;;6.70;;
77726;SDS011;68312;53.502;10.030;2023-09-08T08:42:38;12.23;;;6.05;;
77726;SDS011;68312;53.502;10.030;2023-09-08T08:45:04;9.35;;;5.60;;
77726;SDS011;68312;53.502;10.030;2023-09-08T08:47:31;7.95;;;5.63;;
77726;SDS011;68312;53.502;10.030;2023-09-08T08:49:57;9.13;;;5.55;;
77726;SDS011;68312;53.502;10.030;2023-09-08T08:52:24;7.85;;;5.90;;
77726;SDS011;68312;53.502;10.030;2023-09-08T08:54:51;8.48;;;5.45;;
77726;SDS011;68312;53.502;10.030;2023-09-08T08:57:16;7.30;;;5.20;;
77726;SDS011;68312;53.502;10.030;2023-09-08T08:59:42;8.70;;;5.30;;
77726;SDS011;68312;53.502;10.030;2023-09-08T09:02:11;8.20;;;5.53;;
77726;SDS011;68312;53.502;10.030;2023-09-08T09:04:37;9.48;;;5.85;;
77726;SDS011;68312;53.502;10.030;2023-09-08T09:07:03;7.40;;;5.50;;
77726;SDS011;68312;53.502;10.030;2023-09-08T09:09:31;9.27;;;5.13;;
77726;SDS011;68312;53.502;10.030;2023-09-08T09:11:57;7.13;;;5.05;;
77726;SDS011;68312;53.502;10.030;2023-09-08T09:14:23;6.50;;;4.93;;
77726;SDS011;68312;53.502;10.030;2023-09-08T09:16:49;7.80;;;5.65;;
77726;SDS011;68312;53.502;10.030;2023-09-08T09:19:18;7.10;;;5.22;;
77726;SDS011;68312;53.502;10.030;2023-09-08T09:21:53;8.30;;;5.30;;
77726;SDS011;68312;53.502;10.030;2023-09-08T09:26:55;7.53;;;4.70;;
77726;SDS011;68312;53.502;10.030;2023-09-08T09:29:21;8.20;;;5.10;;
77726;SDS011;68312;53.502;10.030;2023-09-08T09:34:18;8.52;;;5.18;;
77726;SDS011;68312;53.502;10.030;2023-09-08T09:36:46;8.95;;;5.20;;
77726;SDS011;68312;53.502;10.030;2023-09-08T09:39:18;8.98;;;4.90;;
77726;SDS011;68312;53.502;10.030;2023-09-08T09:41:55;8.18;;;4.70;;
77726;SDS011;68312;53.502;10.030;2023-09-08T09:44:22;6.03;;;4.35;;
77726;SDS011;68312;53.502;10.030;2023-09-08T09:46:52;7.45;;;4.72;;
77726;SDS011;68312;53.502;10.030;2023-09-08T09:49:18;6.43;;;4.65;;
77726;SDS011;68312;53.502;10.030;2023-09-08T09:51:45;7.35;;;4.80;;
77726;SDS011;68312;53.502;10.030;2023-09-08T09:54:13;6.03;;;4.32;;
77726;SDS011;68312;53.502;10.030;2023-09-08T09:56:40;7.00;;;4.78;;
77726;SDS011;68312;53.502;10.030;2023-09-08T09:59:11;7.78;;;4.47;;
77726;SDS011;68312;53.502;10.030;2023-09-08T10:01:40;7.43;;;4.53;;
77726;SDS011;68312;53.502;10.030;2023-09-08T10:04:07;6.75;;;4.72;;
77726;SDS011;68312;53.502;10.030;2023-09-08T10:06:33;9.60;;;4.60;;
77726;SDS011;68312;53.502;10.030;2023-09-08T10:09:01;9.68;;;4.70;;
77726;SDS011;68312;53.502;10.030;2023-09-08T10:11:35;6.78;;;4.68;;
77726;SDS011;68312;53.502;10.030;2023-09-08T10:14:09;7.28;;;4.22;;
77726;SDS011;68312;53.502;10.030;2023-09-08T10:16:38;6.80;;;4.80;;
77726;SDS011;68312;53.502;10.030;2023-09-08T10:19:08;8.35;;;4.30;;
77726;SDS011;68312;53.502;10.030;2023-09-08T10:21:42;6.80;;;4.47;;
77726;SDS011;68312;53.502;10.030;2023-09-08T10:24:44;11.75;;;4.60;;
77726;SDS011;68312;53.502;10.030;2023-09-08T10:27:09;6.47;;;4.60;;
77726;SDS011;68312;53.502;10.030;2023-09-08T10:29:36;5.88;;;4.20;;
77726;SDS011;68312;53.502;10.030;2023-09-08T10:32:03;6.10;;;4.40;;
77726;SDS011;68312;53.502;10.030;2023-09-08T10:34:32;5.78;;;4.25;;
77726;SDS011;68312;53.502;10.030;2023-09-08T10:37:00;8.68;;;4.75;;
77726;SDS011;68312;53.502;10.030;2023-09-08T10:39:29;6.70;;;4.30;;
77726;SDS011;68312;53.502;10.030;2023-09-08T10:47:25;7.30;;;4.35;;
77726;SDS011;68312;53.502;10.030;2023-09-08T10:49:59;5.15;;;4.03;;
77726;SDS011;68312;53.502;10.030;2023-09-08T10:52:25;7.05;;;4.30;;
77726;SDS011;68312;53.502;10.030;2023-09-08T10:54:51;4.85;;;3.88;;
77726;SDS011;68312;53.502;10.030;2023-09-08T10:57:23;6.35;;;4.38;;
77726;SDS011;68312;53.502;10.030;2023-09-08T11:05:07;6.35;;;3.63;;
77726;SDS011;68312;53.502;10.030;2023-09-08T11:07:38;5.85;;;3.72;;
77726;SDS011;68312;53.502;10.030;2023-09-08T11:10:06;7.22;;;4.35;;
77726;SDS011;68312;53.502;10.030;2023-09-08T11:12:33;5.20;;;3.85;;
77726;SDS011;68312;53.502;10.030;2023-09-08T11:14:59;4.90;;;3.67;;
77726;SDS011;68312;53.502;10.030;2023-09-08T11:17:30;4.67;;;3.43;;
77726;SDS011;68312;53.502;10.030;2023-09-08T11:19:57;4.72;;;3.47;;
77726;SDS011;68312;53.502;10.030;2023-09-08T11:22:24;9.40;;;3.60;;
77726;SDS011;68312;53.502;10.030;2023-09-08T11:24:55;5.80;;;3.60;;
77726;SDS011;68312;53.502;10.030;2023-09-08T11:27:25;5.32;;;3.67;;
77726;SDS011;68312;53.502;10.030;2023-09-08T11:29:53;6.60;;;3.83;;
77726;SDS011;68312;53.502;10.030;2023-09-08T11:32:19;6.03;;;3.67;;
77726;SDS011;68312;53.502;10.030;2023-09-08T11:34:44;6.82;;;3.80;;
77726;SDS011;68312;53.502;10.030;2023-09-08T11:37:10;6.18;;;3.75;;
77726;SDS011;68312;53.502;10.030;2023-09-08T11:39:43;7.85;;;4.00;;
77726;SDS011;68312;53.502;10.030;2023-09-08T11:42:11;5.85;;;3.65;;
77726;SDS011;68312;53.502;10.030;2023-09-08T11:44:39;6.03;;;3.58;;
77726;SDS011;68312;53.502;10.030;2023-09-08T11:47:06;8.05;;;3.65;;
77726;SDS011;68312;53.502;10.030;2023-09-08T11:49:37;5.43;;;3.47;;
77726;SDS011;68312;53.502;10.030;2023-09-08T11:52:06;5.63;;;3.08;;
77726;SDS011;68312;53.502;10.030;2023-09-08T11:54:33;6.45;;;3.17;;
77726;SDS011;68312;53.502;10.030;2023-09-08T11:57:00;5.90;;;3.22;;
77726;SDS011;68312;53.502;10.030;2023-09-08T11:59:30;3.95;;;2.88;;
77726;SDS011;68312;53.502;10.030;2023-09-08T12:01:58;9.82;;;3.20;;
77726;SDS011;68312;53.502;10.030;2023-09-08T12:04:24;7.63;;;3.55;;
77726;SDS011;68312;53.502;10.030;2023-09-08T12:06:51;7.43;;;2.90;;
77726;SDS011;68312;53.502;10.030;2023-09-08T12:09:22;6.20;;;3.13;;
77726;SDS011;68312;53.502;10.030;2023-09-08T12:11:48;4.70;;;2.80;;
77726;SDS011;68312;53.502;10.030;2023-09-08T12:14:14;9.38;;;3.42;;
77726;SDS011;68312;53.502;10.030;2023-09-08T12:16:41;4.15;;;2.90;;
77726;SDS011;68312;53.502;10.030;2023-09-08T12:19:08;4.40;;;2.75;;
77726;SDS011;68312;53.502;10.030;2023-09-08T12:21:54;4.18;;;2.83;;
77726;SDS011;68312;53.502;10.030;2023-09-08T12:27:19;4.35;;;2.88;;
77726;SDS011;68312;53.502;10.030;2023-09-08T12:30:00;10.20;;;3.05;;
77726;SDS011;68312;53.502;10.030;2023-09-08T12:34:55;6.80;;;2.97;;
77726;SDS011;68312;53.502;10.030;2023-09-08T12:37:25;5.05;;;2.70;;
77726;SDS011;68312;53.502;10.030;2023-09-08T12:39:54;4.53;;;3.03;;
77726;SDS011;68312;53.502;10.030;2023-09-08T12:42:22;4.13;;;2.63;;
77726;SDS011;68312;53.502;10.030;2023-09-08T12:44:51;4.30;;;2.70;;
77726;SDS011;68312;53.502;10.030;2023-09-08T12:47:17;4.10;;;2.58;;
77726;SDS011;68312;53.502;10.030;2023-09-08T12:49:43;4.82;;;2.72;;
77726;SDS011;68312;53.502;10.030;2023-09-08T12:52:08;6.63;;;2.67;;
77726;SDS011;68312;53.502;10.030;2023-09-08T12:54:34;3.25;;;2.53;;
77726;SDS011;68312;53.502;10.030;2023-09-08T12:57:00;3.80;;;2.47;;
77726;SDS011;68312;53.502;10.030;2023-09-08T12:59:27;5.60;;;3.08;;
77726;SDS011;68312;53.502;10.030;2023-09-08T13:01:52;3.80;;;2.42;;
77726;SDS011;68312;53.502;10.030;2023-09-08T13:04:18;4.80;;;2.63;;
77726;SDS011;68312;53.502;10.030;2023-09-08T13:06:44;3.70;;;2.35;;
77726;SDS011;68312;53.502;10.030;2023-09-08T13:09:10;3.35;;;2.55;;
77726;SDS011;68312;53.502;10.030;2023-09-08T13:11:35;7.20;;;2.90;;
77726;SDS011;68312;53.502;10.030;2023-09-08T13:14:01;5.28;;;2.95;;
77726;SDS011;68312;53.502;10.030;2023-09-08T13:16:26;4.28;;;2.83;;
77726;SDS011;68312;53.502;10.030;2023-09-08T13:18:52;4.70;;;3.00;;
77726;SDS011;68312;53.502;10.030;2023-09-08T13:21:17;4.60;;;2.55;;
77726;SDS011;68312;53.502;10.030;2023-09-08T13:23:44;3.25;;;2.42;;
77726;SDS011;68312;53.502;10.030;2023-09-08T13:26:09;6.47;;;3.10;;
77726;SDS011;68312;53.502;10.030;2023-09-08T13:28:34;3.50;;;2.63;;
77726;SDS011;68312;53.502;10.030;2023-09-08T13:31:00;4.40;;;3.10;;
77726;SDS011;68312;53.502;10.030;2023-09-08T13:33:25;5.03;;;2.83;;
77726;SDS011;68312;53.502;10.030;2023-09-08T13:35:51;9.45;;;2.75;;
77726;SDS011;68312;53.502;10.030;2023-09-08T13:38:17;3.92;;;2.80;;
77726;SDS011;68312;53.502;10.030;2023-09-08T13:40:43;4.63;;;2.90;;
77726;SDS011;68312;53.502;10.030;2023-09-08T13:43:08;5.07;;;2.80;;
77726;SDS011;68312;53.502;10.030;2023-09-08T13:45:33;3.60;;;2.97;;
77726;SDS011;68312;53.502;10.030;2023-09-08T13:47:59;7.53;;;3.65;;
77726;SDS011;68312;53.502;10.030;2023-09-08T13:50:24;5.90;;;3.40;;
77726;SDS011;68312;53.502;10.030;2023-09-08T13:52:49;4.38;;;3.20;;
77726;SDS011;68312;53.502;10.030;2023-09-08T13:55:15;6.00;;;3.00;;
77726;SDS011;68312;53.502;10.030;2023-09-08T13:57:40;6.00;;;3.10;;
77726;SDS011;68312;53.502;10.030;2023-09-08T14:00:06;4.05;;;3.30;;
77726;SDS011;68312;53.502;10.030;2023-09-08T14:02:33;4.90;;;3.35;;
77726;SDS011;68312;53.502;10.030;2023-09-08T14:04:59;4.15;;;2.92;;
77726;SDS011;68312;53.502;10.030;2023-09-08T14:07:25;6.50;;;3.20;;
77726;SDS011;68312;53.502;10.030;2023-09-08T14:09:50;6.38;;;3.75;;
77726;SDS011;68312;53.502;10.030;2023-09-08T14:12:15;5.72;;;3.40;;
77726;SDS011;68312;53.502;10.030;2023-09-08T14:14:41;4.18;;;2.90;;
77726;SDS011;68312;53.502;10.030;2023-09-08T14:17:06;4.10;;;2.78;;
77726;SDS011;68312;53.502;10.030;2023-09-08T14:19:32;6.13;;;3.00;;
77726;SDS011;68312;53.502;10.030;2023-09-08T14:21:57;5.68;;;3.30;;
77726;SDS011;68312;53.502;10.030;2023-09-08T14:24:23;5.38;;;3.10;;
77726;SDS011;68312;53.502;10.030;2023-09-08T14:26:48;5.38;;;3.00;;
77726;SDS011;68312;53.502;10.030;2023-09-08T14:29:15;3.80;;;2.88;;
77726;SDS011;68312;53.502;10.030;2023-09-08T14:31:40;6.72;;;3.63;;
77726;SDS011;68312;53.502;10.030;2023-09-08T14:34:06;5.82;;;3.30;;
77726;SDS011;68312;53.502;10.030;2023-09-08T14:36:31;6.50;;;3.08;;
77726;SDS011;68312;53.502;10.030;2023-09-08T14:38:57;3.75;;;2.70;;
77726;SDS011;68312;53.502;10.030;2023-09-08T14:41:22;4.75;;;3.17;;
77726;SDS011;68312;53.502;10.030;2023-09-08T14:43:48;5.43;;;3.20;;
77726;SDS011;68312;53.502;10.030;2023-09-08T14:46:13;4.65;;;3.30;;
77726;SDS011;68312;53.502;10.030;2023-09-08T14:48:38;4.50;;;3.22;;
77726;SDS011;68312;53.502;10.030;2023-09-08T14:51:04;5.97;;;3.55;;